GW0996 Weather Reports


time (UTC)temp
C
wind
direction
speed
KPH
gust
KPH
rain 1hr
cm
rain 24hr
cm
rain mn
cm
humidity
%
barometer
mb
20221203065158 5 355 0.0 0.0 0.00 0.36 0.28 99 1013.8
20221203064657 5 355 0.0 0.0 0.00 0.36 0.28 99 1013.8
20221203064149 5 355 0.0 0.0 0.00 0.36 0.28 99 1013.8
20221203063646 5 355 0.0 0.0 0.00 0.36 0.28 99 1013.8
20221203063136 5 355 0.0 0.0 0.00 0.36 0.28 99 1013.8
20221203062631 5 355 0.0 1.6 0.00 0.36 0.28 98 1013.8
20221203062108 5 355 0.0 1.6 0.00 0.36 0.28 99 1013.8
20221203061543 5 355 0.0 0.0 0.00 0.36 0.28 98 1013.8
20221203061021 5 356 0.0 0.0 0.00 0.36 0.28 98 1013.8
20221203060526 6 356 0.0 0.0 0.00 0.36 0.28 98 1013.8
20221203055508 6 356 0.0 0.0 0.00 0.36 0.28 99 1013.8
20221203054445 5 356 0.0 0.0 0.00 0.36 0.28 99 1013.8
20221203053913 5 356 0.0 0.0 0.00 0.36 0.28 99 1013.8
20221203053409 5 359 0.0 0.0 0.00 0.36 0.28 98 1013.8
20221203052907 5 356 0.0 0.0 0.00 0.36 0.28 98 1013.8
20221203052402 5 357 0.0 0.0 0.00 0.36 0.28 98 1013.8
20221203051847 5 347 0.0 0.0 0.00 0.36 0.28 98 1013.8
20221203051342 5 5 0.0 0.0 0.00 0.36 0.28 98 1013.8
20221203050829 5 5 0.0 0.0 0.00 0.36 0.28 98 1013.8
20221203050254 5 5 0.0 0.0 0.00 0.36 0.28 98 1013.8
20221203045751 6 5 0.0 0.0 0.00 0.36 0.28 98 1013.8
20221203044746 6 334 0.0 0.0 0.00 0.36 0.28 98 1013.8
20221203044227 6 334 0.0 0.0 0.00 0.36 0.28 98 1013.8
20221203043726 6 334 0.0 0.0 0.00 0.36 0.28 98 1013.8
20221203043219 6 334 0.0 0.0 0.00 0.36 0.28 98 1013.8
20221203042718 6 333 0.0 0.0 0.00 0.36 0.28 98 1013.8
20221203041633 6 333 0.0 0.0 0.00 0.36 0.28 98 1013.8
20221203041131 6 332 0.0 0.0 0.00 0.36 0.28 98 1013.8
20221203040616 6 359 0.0 0.0 0.03 0.36 0.28 98 1013.8
20221203035603 6 359 0.0 0.0 0.03 0.36 0.28 98 1013.8
20221203035032 5 359 0.0 0.0 0.03 0.36 0.28 98 1013.8
20221203034533 5 359 0.0 0.0 0.03 0.36 0.28 98 1013.8
20221203033509 6 359 0.0 0.0 0.03 0.36 0.28 98 1013.8
20221203033008 6 359 0.0 0.0 0.03 0.36 0.28 98 1013.8
20221203032458 6 359 0.0 0.0 0.03 0.36 0.28 98 1013.8
20221203031926 6 359 0.0 0.0 0.03 0.36 0.28 98 1013.8
20221203031428 5 359 0.0 0.0 0.03 0.36 0.28 98 1014.8
20221203030918 5 37 0.0 0.0 0.03 0.36 0.28 98 1014.8
20221203030412 5 37 0.0 0.0 0.00 0.33 0.25 98 1014.8
20221203025359 5 356 0.0 0.0 0.00 0.33 0.25 98 1013.8
20221203024841 5 356 0.0 0.0 0.00 0.33 0.25 98 1013.8
20221203023811 5 356 0.0 0.0 0.00 0.33 0.25 98 1014.8
20221203023306 5 356 0.0 0.0 0.00 0.33 0.25 98 1014.8
20221203022802 5 356 0.0 0.0 0.03 0.33 0.25 98 1014.8
20221203022258 5 356 0.0 0.0 0.03 0.33 0.25 98 1014.8
20221203021754 5 356 0.0 0.0 0.03 0.33 0.25 98 1014.8
20221203021233 5 356 0.0 0.0 0.03 0.33 0.25 98 1014.8
20221203020707 5 356 0.0 0.0 0.05 0.33 0.25 98 1014.8
20221203020157 5 356 0.0 0.0 0.05 0.33 0.25 98 1014.8
20221203015620 5 356 0.0 0.0 0.08 0.33 0.25 98 1014.8
20221203015055 5 356 0.0 0.0 0.10 0.33 0.25 98 1014.8
20221203014532 5 356 0.0 0.0 0.10 0.33 0.25 98 1014.8
20221203013514 5 356 0.0 0.0 0.13 0.33 0.25 97 1014.8
20221203013010 5 356 0.0 0.0 0.15 0.33 0.25 97 1014.8
20221203012445 5 356 0.0 0.0 0.13 0.30 0.23 97 1014.8
20221203011944 5 357 0.0 0.0 0.15 0.30 0.23 97 1014.8
20221203011431 5 357 0.0 0.0 0.15 0.30 0.23 97 1014.8
20221203010916 5 357 0.0 0.0 0.15 0.28 0.20 97 1014.8
20221203010426 5 359 0.0 0.0 0.15 0.28 0.20 97 1014.8
20221203005909 5 359 0.0 0.0 0.13 0.25 0.18 97 1014.8
20221203004855 5 356 0.0 0.0 0.13 0.23 0.15 97 1014.8
20221203004340 5 356 0.0 0.0 0.13 0.23 0.15 97 1014.8
20221203003820 5 356 0.0 0.0 0.10 0.20 0.13 97 1014.8
20221203003316 5 356 0.0 0.0 0.08 0.18 0.10 97 1014.8
20221203002754 5 356 0.0 0.0 0.08 0.18 0.10 97 1014.8
20221203002228 5 356 0.0 0.0 0.05 0.15 0.08 97 1014.8
20221203001706 5 356 0.0 0.0 0.05 0.15 0.08 97 1014.8
20221203000128 5 356 0.0 0.0 0.05 0.13 0.05 97 1014.8
20221202235546 5 356 0.0 0.0 0.05 0.13 0.05 97 1014.8
20221202235049 5 356 0.0 0.0 0.03 0.10 0.03 97 1014.8
20221202234541 5 356 0.0 0.0 0.03 0.10 0.03 97 1014.8
20221202234009 5 356 0.0 0.0 0.03 0.10 0.03 97 1014.8
20221202233456 5 356 0.0 0.0 0.03 0.10 0.03 97 1014.8
20221202232939 5 356 0.0 0.0 0.03 0.10 0.03 97 1014.8
20221202232438 5 356 0.0 0.0 0.05 0.10 0.03 97 1014.8
20221202231935 5 356 0.0 0.0 0.05 0.10 0.03 97 1014.8
20221202231422 5 356 0.0 0.0 0.03 0.08 0.00 97 1014.8
20221202230909 5 356 0.0 0.0 0.03 0.08 0.00 97 1014.8
20221202230409 5 356 0.0 0.0 0.03 0.08 0.00 97 1014.8
20221202225258 5 356 0.0 0.0 0.03 0.08 0.08 97 1015.8
20221202224746 5 356 0.0 0.0 0.03 0.08 0.08 97 1015.8
20221202224233 5 356 0.0 0.0 0.03 0.08 0.08 97 1015.8
20221202223734 5 356 0.0 0.0 0.03 0.08 0.08 97 1015.8
20221202223219 5 356 0.0 0.0 0.03 0.08 0.08 97 1015.8
20221202222141 5 356 0.0 0.0 0.00 0.05 0.05 97 1015.8
20221202221126 5 356 0.0 0.0 0.00 0.05 0.05 97 1014.8
20221202220111 5 356 0.0 0.0 0.00 0.05 0.05 97 1015.8
20221202215046 5 356 0.0 0.0 0.00 0.05 0.05 97 1015.8
20221202214533 5 356 0.0 0.0 0.00 0.05 0.05 97 1015.8
20221202214034 5 356 0.0 0.0 0.00 0.05 0.05 97 1015.8
20221202213521 5 356 0.0 0.0 0.00 0.05 0.05 96 1015.8
20221202213017 5 356 0.0 0.0 0.00 0.05 0.05 96 1015.8
20221202212503 5 356 0.0 0.0 0.00 0.05 0.05 96 1015.8
20221202211929 5 356 0.0 0.0 0.00 0.05 0.05 96 1015.8
20221202211417 5 356 0.0 0.0 0.00 0.05 0.05 96 1014.8
20221202210844 5 356 0.0 0.0 0.00 0.05 0.05 96 1014.8
20221202210324 5 356 0.0 0.0 0.00 0.05 0.05 96 1014.8
20221202205812 5 356 0.0 0.0 0.00 0.05 0.05 96 1015.8
20221202205311 5 356 0.0 0.0 0.00 0.05 0.05 96 1015.8
20221202204758 5 356 0.0 0.0 0.00 0.05 0.05 96 1015.8
20221202203732 5 356 0.0 0.0 0.03 0.05 0.05 96 1015.8
20221202203230 5 356 0.0 0.0 0.03 0.05 0.05 96 1015.8
20221202202720 5 356 0.0 0.0 0.05 0.05 0.05 96 1015.8
20221202202205 5 356 0.0 0.0 0.05 0.05 0.05 95 1015.8
20221202201703 5 356 0.0 0.0 0.05 0.05 0.05 95 1015.8
20221202200656 5 356 0.0 0.0 0.05 0.05 0.05 95 1015.8
20221202200148 5 356 0.0 0.0 0.05 0.05 0.05 96 1015.8
20221202195617 5 356 0.0 0.0 0.05 0.05 0.05 95 1015.8
20221202195059 5 356 0.0 0.0 0.05 0.05 0.05 95 1015.8
20221202194556 5 356 0.0 0.0 0.05 0.05 0.05 95 1015.8
20221202194055 5 356 0.0 0.0 0.03 0.03 0.05 95 1015.8
20221202193527 5 356 0.0 0.0 0.03 0.03 0.03 95 1015.8
20221202193008 5 356 0.0 0.0 0.00 0.00 0.00 95 1015.8
20221202192502 5 356 0.0 0.0 0.00 0.00 0.00 95 1015.8
20221202191941 5 356 0.0 0.0 0.00 0.00 0.00 95 1015.8
20221202191439 5 356 0.0 0.0 0.00 0.00 0.00 95 1015.8
20221202190925 5 356 0.0 0.0 0.00 0.00 0.00 95 1015.8
20221202190424 5 356 0.0 0.0 0.00 0.00 0.00 94 1015.8
20221202185911 5 356 0.0 0.0 0.00 0.00 0.00 95 1015.8
20221202185411 5 356 0.0 0.0 0.00 0.00 0.00 95 1015.8
20221202184859 5 358 0.0 0.0 0.00 0.00 0.00 94 1015.8
20221202184345 5 358 0.0 0.0 0.00 0.00 0.00 94 1015.8
20221202183845 5 358 0.0 0.0 0.00 0.00 0.00 95 1015.8
20221202182313 5 348 0.0 0.0 0.00 0.00 0.00 95 1015.8
20221202181800 5 348 0.0 0.0 0.00 0.00 0.00 95 1015.8
20221202180745 5 9 0.0 0.0 0.00 0.00 0.00 95 1015.8
20221202180235 5 9 0.0 0.0 0.00 0.00 0.00 95 1015.8
20221202175720 5 9 0.0 0.0 0.00 0.00 0.00 94 1015.8
20221202174706 5 10 0.0 0.0 0.00 0.00 0.00 94 1015.8
20221202174202 5 10 0.0 0.0 0.00 0.00 0.00 94 1015.8
20221202173157 5 8 0.0 0.0 0.00 0.00 0.00 94 1015.8
20221202172656 5 8 0.0 0.0 0.00 0.00 0.00 94 1015.8
20221202172122 5 8 0.0 0.0 0.00 0.00 0.00 94 1015.8
20221202171622 5 8 0.0 0.0 0.00 0.00 0.00 94 1015.8
20221202171108 5 8 0.0 0.0 0.00 0.00 0.00 94 1015.8
20221202170554 5 8 0.0 0.0 0.00 0.00 0.00 94 1015.8
20221202170042 5 8 0.0 0.0 0.00 0.00 0.00 94 1015.8
20221202165528 5 8 0.0 0.0 0.00 0.00 0.00 93 1015.8
20221202165016 5 8 0.0 0.0 0.00 0.00 0.00 93 1015.8
20221202164504 5 8 0.0 0.0 0.00 0.00 0.00 93 1015.8
20221202163959 5 359 0.0 0.0 0.00 0.00 0.00 92 1015.8
20221202163458 5 359 0.0 0.0 0.00 0.00 0.00 92 1015.8
20221202162945 5 359 0.0 0.0 0.00 0.00 0.00 91 1015.8
20221202162444 5 359 0.0 0.0 0.00 0.00 0.00 92 1015.8
20221202161932 5 359 0.0 0.0 0.00 0.00 0.00 92 1015.8
20221202161418 5 359 0.0 0.0 0.00 0.00 0.00 91 1015.8
20221202160414 6 355 0.0 0.0 0.00 0.00 0.00 89 1015.8
20221202155901 6 355 0.0 0.0 0.00 0.00 0.00 89 1015.8
20221202155357 6 356 0.0 0.0 0.00 0.00 0.00 89 1015.8
20221202154856 6 12 0.0 0.0 0.00 0.00 0.00 87 1015.8
20221202153829 7 12 0.0 0.0 0.00 0.00 0.00 85 1015.8
20221202153326 7 12 0.0 0.0 0.00 0.00 0.00 84 1015.8
20221202152826 8 12 0.0 0.0 0.00 0.00 0.00 83 1015.8
20221202151809 8 12 0.0 0.0 0.00 0.00 0.00 82 1015.8
20221202151308 8 12 0.0 0.0 0.00 0.00 0.00 82 1015.8
20221202150805 8 12 0.0 0.0 0.00 0.00 0.00 82 1015.8
20221202150303 8 12 0.0 0.0 0.00 0.00 0.00 82 1015.8
20221202145752 8 12 0.0 0.0 0.00 0.00 0.00 82 1015.8
20221202145230 8 12 0.0 0.0 0.00 0.00 0.00 82 1015.8
20221202144718 8 12 0.0 0.0 0.00 0.00 0.00 81 1015.8
20221202144206 8 12 0.0 0.0 0.00 0.00 0.00 81 1015.8
20221202143646 8 12 0.0 0.0 0.00 0.00 0.00 79 1015.8
20221202143132 8 12 0.0 0.0 0.00 0.00 0.00 79 1015.8
20221202142115 9 12 0.0 0.0 0.00 0.00 0.00 78 1015.8
20221202141613 9 13 0.0 0.0 0.00 0.00 0.00 77 1015.8
20221202141101 8 13 0.0 0.0 0.00 0.00 0.00 77 1015.8
20221202140558 8 13 0.0 0.0 0.00 0.00 0.00 78 1015.8
20221202135012 8 346 0.0 0.0 0.00 0.00 0.00 78 1015.8
20221202134509 8 346 0.0 0.0 0.00 0.00 0.00 78 1015.8
20221202133453 8 346 0.0 1.6 0.00 0.00 0.00 79 1015.8
20221202132951 8 346 0.0 3.2 0.00 0.00 0.00 80 1015.8
20221202132447 8 313 3.2 3.2 0.00 0.00 0.00 79 1015.8
20221202131945 8 8 0.0 0.0 0.00 0.00 0.00 78 1015.8
20221202131444 8 9 0.0 0.0 0.00 0.00 0.00 79 1015.8
20221202130932 8 9 0.0 0.0 0.00 0.00 0.00 79 1015.8
20221202130427 8 9 0.0 0.0 0.00 0.00 0.00 80 1015.8
20221202125909 8 9 0.0 0.0 0.00 0.00 0.00 80 1015.8
20221202125356 7 2 0.0 0.0 0.00 0.00 0.00 79 1015.8
20221202124854 7 28 0.0 0.0 0.00 0.00 0.00 82 1015.8
20221202124340 7 27 0.0 0.0 0.00 0.00 0.00 82 1015.8
20221202123837 7 27 0.0 0.0 0.00 0.00 0.00 82 1015.8
20221202123337 7 27 0.0 0.0 0.00 0.00 0.00 84 1015.8
20221202122821 7 27 0.0 0.0 0.00 0.00 0.00 84 1015.8
20221202121808 7 27 0.0 0.0 0.00 0.00 0.00 85 1015.8
20221202121242 7 27 0.0 0.0 0.00 0.00 0.00 85 1015.8
20221202120730 6 27 0.0 0.0 0.00 0.00 0.00 85 1015.8
20221202120226 6 27 0.0 0.0 0.00 0.00 0.00 85 1015.8
20221202115214 6 27 0.0 0.0 0.00 0.00 0.00 85 1016.8
20221202114701 6 27 0.0 0.0 0.00 0.00 0.00 85 1016.8
20221202114127 6 27 0.0 0.0 0.00 0.00 0.00 85 1016.8
20221202113625 6 27 0.0 0.0 0.00 0.00 0.00 86 1016.8
20221202113111 6 27 0.0 0.0 0.00 0.00 0.00 87 1016.8
20221202112609 6 27 0.0 0.0 0.00 0.00 0.00 86 1016.8
20221202111556 6 357 0.0 0.0 0.00 0.00 0.00 88 1016.8
20221202111030 6 357 0.0 0.0 0.00 0.00 0.00 87 1016.8
20221202110524 6 357 0.0 0.0 0.00 0.00 0.00 87 1016.8
20221202105514 5 11 0.0 0.0 0.00 0.00 0.00 89 1016.8
20221202104950 5 4 0.0 0.0 0.00 0.00 0.00 88 1016.8
20221202104452 5 4 0.0 0.0 0.00 0.00 0.00 89 1016.8
20221202103924 5 358 0.0 0.0 0.00 0.00 0.00 91 1016.8
20221202103427 5 358 0.0 0.0 0.00 0.00 0.00 92 1016.8
20221202102921 5 358 0.0 0.0 0.00 0.00 0.00 91 1016.8
20221202102411 5 358 0.0 0.0 0.00 0.00 0.00 92 1016.8
20221202101852 5 355 0.0 0.0 0.00 0.00 0.00 92 1016.8
20221202101355 5 351 0.0 0.0 0.00 0.00 0.00 94 1016.8
20221202100846 5 350 0.0 0.0 0.00 0.00 0.00 94 1016.8
20221202100350 4 348 0.0 0.0 0.00 0.00 0.00 95 1016.8
20221202095842 4 342 0.0 0.0 0.00 0.00 0.00 95 1016.8
20221202095331 3 342 0.0 0.0 0.00 0.00 0.00 96 1016.8
20221202095027 3 342 0.0 0.0 0.00 0.00 0.00 96 1016.8
20221202094934 3 342 0.0 0.0 0.00 0.00 0.00 96 1016.8
20221202094618 3 342 0.0 3.2 0.00 0.00 0.00 96 1016.8
20221202094049 3 342 0.0 3.2 0.00 0.00 0.00 96 1016.8
20221202093409 3 346 0.0 0.0 0.00 0.00 0.00 96 1016.8
20221202092814 2 346 0.0 0.0 0.00 0.00 0.00 96 1016.8
20221202092155 2 346 0.0 0.0 0.00 0.03 0.00 96 1016.8
20221202091508 2 359 0.0 0.0 0.00 0.03 0.00 97 1017.8
20221202090913 2 0 0.0 0.0 0.00 0.03 0.00 97 1017.8
20221202085633 2 0 0.0 0.0 0.00 0.03 0.00 96 1016.8
20221202085134 2 11 0.0 0.0 0.00 0.03 0.00 97 1016.8
20221202084607 2 11 0.0 0.0 0.00 0.03 0.00 96 1016.8
20221202084052 2 11 0.0 0.0 0.00 0.03 0.00 96 1016.8
20221202083537 2 11 0.0 0.0 0.00 0.03 0.00 97 1016.8
20221202083029 2 11 0.0 0.0 0.00 0.03 0.00 97 1016.8
20221202082526 2 11 0.0 0.0 0.00 0.03 0.00 97 1016.8
20221202082009 1 11 0.0 0.0 0.00 0.03 0.00 97 1016.8
20221202081509 1 11 0.0 0.0 0.00 0.03 0.00 97 1016.8
20221202075922 1 11 0.0 0.0 0.00 0.03 0.00 97 1016.8
20221202075404 1 11 0.0 0.0 0.00 0.03 0.00 97 1016.8
20221202074900 1 11 0.0 0.0 0.00 0.03 0.00 97 1016.8
20221202074359 1 15 0.0 0.0 0.00 0.03 0.00 97 1016.8
20221202073857 1 14 0.0 0.0 0.00 0.03 0.00 97 1016.8
20221202073352 1 15 0.0 0.0 0.00 0.03 0.00 97 1016.8
20221202072848 1 14 0.0 0.0 0.00 0.03 0.00 97 1016.8
20221202072344 1 15 0.0 0.0 0.00 0.03 0.00 97 1016.8
20221202071845 1 14 0.0 0.0 0.00 0.03 0.00 97 1016.8
20221202071339 1 14 0.0 0.0 0.00 0.03 0.00 97 1016.8
20221202070838 1 359 0.0 0.0 0.00 0.03 0.00 97 1016.8
20221202065812 1 359 0.0 0.0 0.00 0.03 0.00 97 1016.8